Time;durP1;ratioP1;P1;durP2;ratioP2;P2;SDS_P1;SDS_P2;PMS_P1;PMS_P2;Temp;Humidity;BMP_temperature;BMP_pressure;BME280_temperature;BME280_humidity;BME280_pressure;Samples;Min_cycle;Max_cycle;Signal;HPM_P1;HPM_P2
2022/10/16 00:09:50;;;;;;;11.2;14.3;;;;;;;14;76.1;98970;;;;
2022/10/16 00:19:50;;;;;;;11.2;14.3;;;;;;;14.1;76.3;98980;;;;
2022/10/16 00:30:50;;;;;;;9.5;15.3;;;;;;;14.1;76.4;98980;;;;
2022/10/16 00:40:50;;;;;;;9.5;15.3;;;;;;;14.2;76.3;99000;;;;
2022/10/16 00:50:50;;;;;;;9.5;15.3;;;;;;;14;77.8;99010;;;;
2022/10/16 01:01:50;;;;;;;11.2;15.5;;;;;;;14;77.9;99010;;;;
2022/10/16 01:11:50;;;;;;;11.2;15.5;;;;;;;14;78;99010;;;;
2022/10/16 01:22:50;;;;;;;11.2;15.5;;;;;;;13.9;78.8;99010;;;;
2022/10/16 01:33:50;;;;;;;11.8;14.9;;;;;;;13.9;79;99010;;;;
2022/10/16 01:44:50;;;;;;;11.8;14.9;;;;;;;13.9;78.9;99020;;;;
2022/10/16 01:55:50;;;;;;;13.4;17.4;;;;;;;13.8;79.5;99020;;;;
2022/10/16 02:06:50;;;;;;;13.4;17.4;;;;;;;13.8;79.5;99030;;;;
2022/10/16 02:16:50;;;;;;;13.4;17.4;;;;;;;13.6;79.9;99030;;;;
2022/10/16 02:27:50;;;;;;;14.5;16.4;;;;;;;13.5;80;99030;;;;
2022/10/16 02:37:50;;;;;;;14.5;16.4;;;;;;;13.4;79.7;99030;;;;
2022/10/16 02:47:50;;;;;;;14.5;16.4;;;;;;;13.4;79.3;99030;;;;
2022/10/16 02:58:50;;;;;;;11.6;14.1;;;;;;;13.3;79.4;99040;;;;
2022/10/16 03:09:50;;;;;;;11.6;14.1;;;;;;;13.3;79;99040;;;;
2022/10/16 03:20:50;;;;;;;11.6;14.1;;;;;;;13.1;79;99030;;;;
2022/10/16 03:31:50;;;;;;;9;12;;;;;;;12.9;78.9;99040;;;;
2022/10/16 03:41:50;;;;;;;9;12;;;;;;;12.6;79.4;99060;;;;
2022/10/16 03:52:50;;;;;;;9;12;;;;;;;12.3;80.2;99080;;;;
2022/10/16 04:02:50;;;;;;;7.7;11.2;;;;;;;12.3;81;99080;;;;
2022/10/16 04:13:50;;;;;;;7.7;11.2;;;;;;;12.3;81.3;99100;;;;
2022/10/16 04:23:50;;;;;;;7.5;10.6;;;;;;;12.3;81.8;99100;;;;
2022/10/16 04:33:50;;;;;;;7.5;10.6;;;;;;;12.2;81.4;99100;;;;
2022/10/16 04:44:50;;;;;;;7.5;10.6;;;;;;;12.1;81.6;99100;;;;
2022/10/16 04:54:50;;;;;;;7.2;9.6;;;;;;;12;81.5;99110;;;;
2022/10/16 05:04:50;;;;;;;7.2;9.6;;;;;;;11.9;81.3;99110;;;;
2022/10/16 05:14:50;;;;;;;7.2;9.6;;;;;;;11.8;81.3;99100;;;;
2022/10/16 05:24:50;;;;;;;7.3;9.7;;;;;;;11.7;81.3;99110;;;;
2022/10/16 05:35:50;;;;;;;7.3;9.7;;;;;;;11.7;81.7;99120;;;;
2022/10/16 05:45:51;;;;;;;7.3;9.7;;;;;;;11.9;82;99120;;;;
2022/10/16 05:55:50;;;;;;;7.6;11.2;;;;;;;12.1;82.7;99130;;;;
2022/10/16 06:06:50;;;;;;;7.6;11.2;;;;;;;12.3;83.1;99130;;;;
2022/10/16 06:16:50;;;;;;;7.6;11.2;;;;;;;12.5;82.9;99150;;;;
2022/10/16 06:26:50;;;;;;;7.8;11.2;;;;;;;12.7;82.6;99170;;;;
2022/10/16 06:37:50;;;;;;;7.8;11.2;;;;;;;13;82.3;99190;;;;
2022/10/16 06:47:50;;;;;;;7.8;11.2;;;;;;;13.5;82.1;99200;;;;
2022/10/16 06:58:50;;;;;;;16.2;18;;;;;;;13.9;81.5;99210;;;;
2022/10/16 07:09:50;;;;;;;16.2;18;;;;;;;14.1;80.4;99220;;;;
2022/10/16 07:20:50;;;;;;;16.2;18;;;;;;;14.2;79.9;99210;;;;
2022/10/16 07:30:50;;;;;;;23.3;27.7;;;;;;;14.4;80.1;99220;;;;
2022/10/16 07:41:50;;;;;;;23.3;27.7;;;;;;;14.6;79.9;99220;;;;
2022/10/16 07:51:50;;;;;;;23.3;27.7;;;;;;;14.8;79.1;99230;;;;
2022/10/16 08:01:50;;;;;;;11.4;15.1;;;;;;;15.1;78.7;99240;;;;
2022/10/16 08:12:50;;;;;;;11.4;15.1;;;;;;;15.6;77.8;99240;;;;
2022/10/16 08:22:50;;;;;;;11.4;15.1;;;;;;;15.9;76.3;99260;;;;
2022/10/16 08:33:51;;;;;;;10.4;15;;;;;;;16.2;75.8;99250;;;;
2022/10/16 08:44:50;;;;;;;10.4;15;;;;;;;16.7;75.6;99260;;;;
2022/10/16 08:54:50;;;;;;;10;14.5;;;;;;;17.5;73.2;99260;;;;
2022/10/16 09:04:50;;;;;;;10;14.5;;;;;;;18.2;71.2;99270;;;;
2022/10/16 09:15:50;;;;;;;10;14.5;;;;;;;18.6;69;99270;;;;
2022/10/16 09:25:50;;;;;;;9.7;17.9;;;;;;;18.8;67.9;99270;;;;
2022/10/16 09:35:50;;;;;;;9.7;17.9;;;;;;;19.2;68.4;99270;;;;
2022/10/16 09:46:51;;;;;;;9.7;17.9;;;;;;;20;67.6;99280;;;;
2022/10/16 09:57:50;;;;;;;8.1;14;;;;;;;20.6;65.5;99270;;;;
2022/10/16 10:08:50;;;;;;;8.1;14;;;;;;;21.3;63.4;99270;;;;
2022/10/16 10:18:50;;;;;;;8.1;14;;;;;;;21.9;60.3;99270;;;;
2022/10/16 10:29:50;;;;;;;6.8;12.3;;;;;;;22.2;60.2;99270;;;;
2022/10/16 10:40:50;;;;;;;6.8;12.3;;;;;;;22.7;58.6;99270;;;;
2022/10/16 10:51:50;;;;;;;6.8;12.3;;;;;;;23.1;55.8;99250;;;;
2022/10/16 11:02:50;;;;;;;5.2;10;;;;;;;23;55;99260;;;;
2022/10/16 11:12:50;;;;;;;5.2;10;;;;;;;22.8;55.9;99260;;;;
2022/10/16 11:22:50;;;;;;;5.2;10;;;;;;;22.8;54;99260;;;;
2022/10/16 11:32:50;;;;;;;4.4;7.8;;;;;;;22.9;55.1;99250;;;;
2022/10/16 11:43:50;;;;;;;4.4;7.8;;;;;;;22.7;54.6;99260;;;;
2022/10/16 11:53:50;;;;;;;4.5;9.9;;;;;;;22.6;56.6;99260;;;;
2022/10/16 12:04:50;;;;;;;4.5;9.9;;;;;;;22.2;56.6;99270;;;;
2022/10/16 12:14:50;;;;;;;4.5;9.9;;;;;;;22;58.3;99280;;;;
2022/10/16 12:24:50;;;;;;;6.3;9.5;;;;;;;21.9;60.2;99270;;;;
2022/10/16 12:35:50;;;;;;;6.3;9.5;;;;;;;22.1;58.7;99270;;;;
2022/10/16 12:46:50;;;;;;;6.3;9.5;;;;;;;22.2;58.5;99280;;;;
2022/10/16 12:57:50;;;;;;;5.4;8.4;;;;;;;22;58.4;99290;;;;
2022/10/16 13:07:50;;;;;;;5.4;8.4;;;;;;;21.8;60.3;99290;;;;
2022/10/16 13:18:50;;;;;;;5.4;8.4;;;;;;;21.7;59.5;99300;;;;
2022/10/16 13:28:50;;;;;;;5;7.8;;;;;;;21.5;60.3;99310;;;;
2022/10/16 13:38:50;;;;;;;5;7.8;;;;;;;21.3;60.9;99320;;;;
2022/10/16 13:48:51;;;;;;;5;7.8;;;;;;;21.2;62;99330;;;;
2022/10/16 13:58:50;;;;;;;4.6;8.2;;;;;;;20.8;63;99340;;;;
2022/10/16 14:09:50;;;;;;;4.6;8.2;;;;;;;20.5;63.6;99340;;;;
2022/10/16 14:20:50;;;;;;;4.6;8.2;;;;;;;20.2;65.4;99350;;;;
2022/10/16 14:31:50;;;;;;;5.3;8.9;;;;;;;20;66.6;99340;;;;
2022/10/16 14:41:50;;;;;;;5.3;8.9;;;;;;;20;66.6;99330;;;;
2022/10/16 14:51:51;;;;;;;5.3;8.9;;;;;;;19.9;66.6;99330;;;;
2022/10/16 15:01:50;;;;;;;5.1;8;;;;;;;19.5;65.3;99330;;;;
2022/10/16 15:11:50;;;;;;;5.1;8;;;;;;;19.3;65.2;99350;;;;
2022/10/16 15:22:50;;;;;;;5.1;8;;;;;;;19.1;65.2;99370;;;;
2022/10/16 15:33:53;;;;;;;5.8;7.9;;;;;;;18.9;65.6;99380;;;;
2022/10/16 15:43:50;;;;;;;5.8;7.9;;;;;;;18.5;66.4;99380;;;;
2022/10/16 15:54:50;;;;;;;7.1;11.8;;;;;;;18;67.3;99380;;;;
2022/10/16 16:05:50;;;;;;;7.1;11.8;;;;;;;17.5;68.2;99390;;;;
2022/10/16 16:16:50;;;;;;;7.1;11.8;;;;;;;16.9;71;99390;;;;
2022/10/16 16:27:50;;;;;;;8.4;12;;;;;;;16.7;72;99400;;;;
2022/10/16 16:37:50;;;;;;;8.4;12;;;;;;;16.4;72.5;99420;;;;
2022/10/16 16:48:52;;;;;;;8.4;12;;;;;;;16;73.5;99430;;;;
2022/10/16 16:59:51;;;;;;;12;17.2;;;;;;;15.8;75.4;99430;;;;
2022/10/16 17:10:54;;;;;;;12;17.2;;;;;;;15.9;75.3;99450;;;;
2022/10/16 17:21:50;;;;;;;12;17.2;;;;;;;15.8;75.7;99460;;;;
2022/10/16 17:31:50;;;;;;;9.9;14;;;;;;;15.8;74.9;99470;;;;
2022/10/16 17:42:50;;;;;;;9.9;14;;;;;;;15.6;74.2;99500;;;;
2022/10/16 17:52:50;;;;;;;9.9;14;;;;;;;15.3;74.3;99510;;;;
2022/10/16 18:02:50;;;;;;;9.8;15;;;;;;;14.9;75.5;99500;;;;
2022/10/16 18:12:50;;;;;;;9.8;15;;;;;;;14.7;76.5;99520;;;;
2022/10/16 18:23:50;;;;;;;14;17.4;;;;;;;14.7;76.4;99540;;;;
2022/10/16 18:33:50;;;;;;;14;17.4;;;;;;;14.5;76.3;99550;;;;
2022/10/16 18:44:50;;;;;;;14;17.4;;;;;;;14.2;76.7;99570;;;;
2022/10/16 18:55:50;;;;;;;17.7;24;;;;;;;13.9;77.3;99590;;;;
2022/10/16 19:06:51;;;;;;;17.7;24;;;;;;;13.6;77.9;99600;;;;
2022/10/16 19:16:50;;;;;;;17.7;24;;;;;;;13.8;81.3;99610;;;;
2022/10/16 19:27:50;;;;;;;12.6;18.3;;;;;;;14.1;80.7;99630;;;;
2022/10/16 19:37:50;;;;;;;12.6;18.3;;;;;;;14.1;80.5;99630;;;;
2022/10/16 19:48:50;;;;;;;12.6;18.3;;;;;;;14.4;79.9;99630;;;;
2022/10/16 19:59:50;;;;;;;10.4;15.5;;;;;;;14.6;79.1;99640;;;;
2022/10/16 20:09:50;;;;;;;10.4;15.5;;;;;;;14.5;78.8;99640;;;;
2022/10/16 20:20:51;;;;;;;10.4;15.5;;;;;;;14.3;78.4;99650;;;;
2022/10/16 20:31:50;;;;;;;10.8;17.7;;;;;;;14;78.4;99670;;;;
2022/10/16 20:41:50;;;;;;;10.8;17.7;;;;;;;13.7;78.6;99680;;;;
2022/10/16 20:52:50;;;;;;;10.8;17.7;;;;;;;13.4;79;99690;;;;
2022/10/16 21:02:50;;;;;;;12.8;15.8;;;;;;;13.2;79.7;99690;;;;
2022/10/16 21:13:50;;;;;;;12.8;15.8;;;;;;;12.9;80.5;99700;;;;
2022/10/16 21:23:50;;;;;;;11;14.8;;;;;;;12.8;81.2;99720;;;;
2022/10/16 21:33:51;;;;;;;11;14.8;;;;;;;12.6;81.9;99730;;;;
2022/10/16 21:43:50;;;;;;;11;14.8;;;;;;;12.6;83.4;99740;;;;
2022/10/16 21:53:50;;;;;;;11.9;15.3;;;;;;;12.5;82.9;99750;;;;
2022/10/16 22:04:51;;;;;;;11.9;15.3;;;;;;;12.3;83;99760;;;;
2022/10/16 22:15:51;;;;;;;11.9;15.3;;;;;;;12.2;82.9;99770;;;;
2022/10/16 22:26:51;;;;;;;10.5;15.5;;;;;;;12.1;83.2;99780;;;;
2022/10/16 22:37:50;;;;;;;10.5;15.5;;;;;;;12.1;83.2;99780;;;;
2022/10/16 22:47:50;;;;;;;10.5;15.5;;;;;;;12.2;83.4;99770;;;;
2022/10/16 22:57:50;;;;;;;8.4;11;;;;;;;12.2;83.4;99780;;;;
2022/10/16 23:08:51;;;;;;;8.4;11;;;;;;;12.1;83.2;99780;;;;
2022/10/16 23:18:50;;;;;;;8.4;11;;;;;;;11.8;83.4;99780;;;;
2022/10/16 23:28:50;;;;;;;11.8;14.4;;;;;;;11.7;84.6;99790;;;;
2022/10/16 23:38:51;;;;;;;11.8;14.4;;;;;;;11.6;84.5;99800;;;;
2022/10/16 23:48:51;;;;;;;11.8;14.4;;;;;;;11.3;84.9;99810;;;;
2022/10/16 23:58:50;;;;;;;12;16.5;;;;;;;11.2;85;99820;;;;
